Terminal Aerodrome Forecast
Issued by NWS Charleston, WV

Current Version | Previous Version | Graphics & Text | Print | Product List | Glossary On
Versions: 1 2 3 4 5 6 7 8 9 10 11 12 13 14 15 16 17 18 19 20 21 22 23 24 25
610
FTUS41 KRLX 191733
TAFEKN
TAF
KEKN 191733Z 1918/2018 19008KT P6SM BKN035
     FM192000 19009G18KT P6SM VCTS BKN035CB
      TEMPO 1921/1923 4SM TSRA OVC025CB
     FM200300 21006KT P6SM SHRA BKN040
     FM200500 22007KT P6SM OVC025
     FM200900 24006KT P6SM OVC010
     FM201700 28007KT P6SM BKN025=

USA.gov is the U.S. government's official web portal to all federal, state and local government web resources and services.